createdAt,value
2023-01-07T00:01:39.610Z,100747.69
2023-01-07T00:04:14.265Z,100753.81
2023-01-07T00:06:43.017Z,100754.09
2023-01-07T00:09:14.157Z,100754.47
2023-01-07T00:11:41.685Z,100746.97
2023-01-07T00:14:10.745Z,100747.25
2023-01-07T00:16:38.119Z,100738.72
2023-01-07T00:19:06.525Z,100737.97
2023-01-07T00:21:33.539Z,100742.47
2023-01-07T00:24:02.540Z,100735.59
2023-01-07T00:26:37.187Z,100739.19
2023-01-07T00:29:05.505Z,100736.63
2023-01-07T00:31:35.462Z,100733.06
2023-01-07T00:34:02.642Z,100731.28
2023-01-07T00:36:32.182Z,100724.31
2023-01-07T00:39:00.917Z,100726.88
2023-01-07T00:41:28.202Z,100714.47
2023-01-07T00:43:54.961Z,100714.41
2023-01-07T00:46:22.521Z,100713.44
2023-01-07T00:48:49.389Z,100715.19
2023-01-07T00:51:17.508Z,100720.41
2023-01-07T00:53:44.253Z,100719.50
2023-01-07T00:56:12.263Z,100715.94
2023-01-07T00:58:38.948Z,100722.97
2023-01-07T01:01:06.321Z,100717.72
2023-01-07T01:03:34.022Z,100716.91
2023-01-07T01:06:05.688Z,100728.53
2023-01-07T01:08:32.779Z,100726.22
2023-01-07T01:11:04.976Z,100724.84
2023-01-07T01:13:32.326Z,100719.94
2023-01-07T01:15:59.225Z,100722.81
2023-01-07T01:18:25.741Z,100716.84
2023-01-07T01:20:55.358Z,100723.19
2023-01-07T01:23:22.308Z,100722.50
2023-01-07T01:25:49.090Z,100712.97
2023-01-07T01:28:17.831Z,100713.06
2023-01-07T01:30:44.690Z,100722.00
2023-01-07T01:33:12.590Z,100724.81
2023-01-07T01:35:41.113Z,100724.06
2023-01-07T01:38:10.847Z,100720.69
2023-01-07T01:40:37.599Z,100720.00
2023-01-07T01:43:23.829Z,100724.47
2023-01-07T01:45:50.715Z,100716.72
2023-01-07T01:48:19.886Z,100712.41
2023-01-07T01:50:48.296Z,100710.75
2023-01-07T01:53:23.840Z,100715.22
2023-01-07T01:55:57.346Z,100711.81
2023-01-07T01:59:01.947Z,100707.47
2023-01-07T02:01:33.037Z,100717.25
2023-01-07T02:04:01.613Z,100717.34
2023-01-07T02:06:36.552Z,100713.88
2023-01-07T02:09:03.672Z,100710.41
2023-01-07T02:11:46.609Z,100708.66
2023-01-07T02:14:24.922Z,100708.66
2023-01-07T02:17:03.837Z,100708.66
2023-01-07T02:19:54.026Z,100705.00
2023-01-07T02:23:13.566Z,100705.88
2023-01-07T02:26:08.254Z,100706.78
2023-01-07T02:29:29.742Z,100701.50
2023-01-07T02:32:15.409Z,100699.81
2023-01-07T02:34:48.952Z,100698.97
2023-01-07T02:37:55.874Z,100699.00
2023-01-07T02:40:32.653Z,100698.16
2023-01-07T02:43:08.514Z,100696.38
2023-01-07T02:45:57.736Z,100693.75
2023-01-07T02:48:25.980Z,100687.63
2023-01-07T02:50:52.670Z,100693.84
2023-01-07T02:53:21.143Z,100688.56
2023-01-07T02:56:19.206Z,100684.16
2023-01-07T02:59:11.889Z,100678.88
2023-01-07T03:01:54.024Z,100683.34
2023-01-07T03:04:32.855Z,100684.13
2023-01-07T03:07:11.454Z,100667.19
2023-01-07T03:09:57.695Z,100668.69
2023-01-07T03:12:45.550Z,100668.41
2023-01-07T03:15:24.173Z,100668.25
2023-01-07T03:18:16.484Z,100666.38
2023-01-07T03:20:45.821Z,100663.66
2023-01-07T03:23:16.828Z,100666.22
2023-01-07T03:25:46.600Z,100668.94
2023-01-07T03:28:17.309Z,100664.56
2023-01-07T03:30:44.837Z,100669.00
2023-01-07T03:33:16.181Z,100669.06
2023-01-07T03:35:47.480Z,100664.78
2023-01-07T03:38:16.969Z,100668.41
2023-01-07T03:40:43.635Z,100667.63
2023-01-07T03:43:14.410Z,100661.56
2023-01-07T03:45:42.604Z,100662.50
2023-01-07T03:48:09.344Z,100650.22
2023-01-07T03:50:37.962Z,100659.13
2023-01-07T03:53:07.708Z,100657.41
2023-01-07T03:55:36.301Z,100641.59
2023-01-07T03:58:03.513Z,100640.75
2023-01-07T04:00:30.028Z,100638.16
2023-01-07T04:03:08.436Z,100636.44
2023-01-07T04:05:39.421Z,100632.03
2023-01-07T04:08:06.012Z,100624.97
2023-01-07T04:10:35.882Z,100623.97
2023-01-07T04:13:02.464Z,100616.75
2023-01-07T04:15:29.357Z,100623.66
2023-01-07T04:17:56.199Z,100615.56
2023-01-07T04:20:23.919Z,100616.31
2023-01-07T04:22:50.495Z,100613.53
2023-01-07T04:25:17.765Z,100608.13
2023-01-07T04:27:45.278Z,100614.19
2023-01-07T04:30:14.756Z,100610.56
2023-01-07T04:32:41.336Z,100614.91
2023-01-07T04:35:08.624Z,100604.28
2023-01-07T04:37:35.413Z,100608.63
2023-01-07T04:40:02.377Z,100609.44
2023-01-07T04:42:33.202Z,100612.06
2023-01-07T04:44:59.805Z,100603.22
2023-01-07T04:47:30.533Z,100597.91
2023-01-07T04:49:58.049Z,100602.25
2023-01-07T04:52:27.767Z,100600.38
2023-01-07T04:54:55.083Z,100599.41
2023-01-07T04:57:21.782Z,100594.94
2023-01-07T04:59:48.352Z,100597.53
2023-01-07T05:02:15.222Z,100602.78
2023-01-07T05:04:42.356Z,100604.50
2023-01-07T05:07:09.536Z,100599.22
2023-01-07T05:09:36.167Z,100603.56
2023-01-07T05:12:03.233Z,100594.72
2023-01-07T05:14:30.555Z,100582.31
2023-01-07T05:16:57.363Z,100583.13
2023-01-07T05:19:29.804Z,100588.34
2023-01-07T05:21:56.493Z,100586.53
2023-01-07T05:24:23.209Z,100584.72
2023-01-07T05:26:54.204Z,100579.44
2023-01-07T05:29:21.693Z,100575.91
2023-01-07T05:31:48.727Z,100571.56
2023-01-07T05:34:15.533Z,100583.13
2023-01-07T05:36:43.635Z,100583.31
2023-01-07T05:39:10.363Z,100587.03
2023-01-07T05:41:37.515Z,100580.22
2023-01-07T05:44:07.679Z,100587.38
2023-01-07T05:46:34.620Z,100593.69
2023-01-07T05:49:01.115Z,100585.06
2023-01-07T05:51:27.584Z,100587.78
2023-01-07T05:53:55.070Z,100587.03
2023-01-07T05:56:22.176Z,100584.47
2023-01-07T05:58:48.897Z,100594.19
2023-01-07T06:01:15.472Z,100587.22
2023-01-07T06:03:42.134Z,100588.13
2023-01-07T06:06:08.718Z,100587.31
2023-01-07T06:08:36.442Z,100588.22
2023-01-07T06:11:03.988Z,100596.09
2023-01-07T06:13:31.183Z,100592.56
2023-01-07T06:16:05.503Z,100593.38
2023-01-07T06:18:32.382Z,100595.13
2023-01-07T06:20:59.088Z,100595.13
2023-01-07T06:23:27.492Z,100586.38
2023-01-07T06:25:54.129Z,100590.72
2023-01-07T06:28:20.851Z,100580.91
2023-01-07T06:30:48.200Z,100582.63
2023-01-07T06:33:16.849Z,100580.78
2023-01-07T06:35:46.204Z,100579.84
2023-01-07T06:38:13.277Z,100579.81
2023-01-07T06:40:40.396Z,100575.44
2023-01-07T06:43:09.251Z,100568.41
2023-01-07T06:45:36.370Z,100572.84
2023-01-07T06:48:02.904Z,100564.84
2023-01-07T06:50:29.480Z,100567.44
2023-01-07T06:52:56.900Z,100563.84
2023-01-07T06:55:23.443Z,100571.75
2023-01-07T06:57:54.555Z,100568.22
2023-01-07T07:00:21.454Z,100563.88
2023-01-07T07:02:48.019Z,100566.47
2023-01-07T07:05:15.009Z,100572.63
2023-01-07T07:07:41.525Z,100567.38
2023-01-07T07:10:09.134Z,100566.47
2023-01-07T07:12:37.728Z,100567.38
2023-01-07T07:15:06.799Z,100574.44
2023-01-07T07:17:33.492Z,100574.44
2023-01-07T07:20:02.967Z,100571.88
2023-01-07T07:22:32.430Z,100572.75
2023-01-07T07:25:02.137Z,100572.81
2023-01-07T07:27:28.634Z,100563.09
2023-01-07T07:29:58.076Z,100564.03
2023-01-07T07:32:28.351Z,100568.41
2023-01-07T07:34:56.095Z,100572.84
2023-01-07T07:37:22.903Z,100575.53
2023-01-07T07:39:49.917Z,100573.81
2023-01-07T07:42:16.427Z,100578.25
2023-01-07T07:44:44.200Z,100573.81
2023-01-07T07:47:11.288Z,100579.97
2023-01-07T07:49:37.884Z,100576.47
2023-01-07T07:52:04.797Z,100582.63
2023-01-07T07:54:31.236Z,100579.09
2023-01-07T07:56:58.419Z,100575.56
2023-01-07T07:59:25.752Z,100572.94
2023-01-07T08:01:52.297Z,100575.63
2023-01-07T08:04:18.968Z,100580.06
2023-01-07T08:06:46.603Z,100582.81
2023-01-07T08:09:13.186Z,100572.28
2023-01-07T08:11:41.205Z,100570.59
2023-01-07T08:14:07.850Z,100579.47
2023-01-07T08:16:34.553Z,100577.72
2023-01-07T08:19:01.129Z,100576.94
2023-01-07T08:21:27.588Z,100575.22
2023-01-07T08:23:54.133Z,100574.44
2023-01-07T08:26:20.788Z,100579.84
2023-01-07T08:28:47.294Z,100564.06
2023-01-07T08:31:13.977Z,100561.50
2023-01-07T08:33:40.664Z,100565.16
2023-01-07T08:36:18.233Z,100553.84
2023-01-07T08:38:55.338Z,100555.75
2023-01-07T08:41:23.721Z,100552.38
2023-01-07T08:43:51.357Z,100552.47
2023-01-07T08:46:20.564Z,100556.13
2023-01-07T08:48:50.292Z,100561.53
2023-01-07T08:51:17.098Z,100547.50
2023-01-07T08:53:43.710Z,100553.72
2023-01-07T08:56:10.293Z,100551.09
2023-01-07T08:58:38.390Z,100553.81
2023-01-07T09:01:07.107Z,100558.22
2023-01-07T09:03:34.816Z,100551.22
2023-01-07T09:06:01.491Z,100547.75
2023-01-07T09:08:28.198Z,100548.66
2023-01-07T09:10:54.849Z,100551.31
2023-01-07T09:13:21.487Z,100552.31
2023-01-07T09:15:48.335Z,100549.78
2023-01-07T09:18:14.973Z,100545.44
2023-01-07T09:20:41.492Z,100545.53
2023-01-07T09:23:08.118Z,100547.41
2023-01-07T09:25:34.637Z,100545.75
2023-01-07T09:28:01.164Z,100551.13
2023-01-07T09:30:28.138Z,100547.66
2023-01-07T09:32:54.914Z,100552.97
2023-01-07T09:35:21.605Z,100545.97
2023-01-07T09:37:48.333Z,100546.03
2023-01-07T09:40:31.469Z,100547.84
2023-01-07T09:43:08.808Z,100544.41
2023-01-07T09:45:45.701Z,100540.91
2023-01-07T09:48:27.092Z,100532.13
2023-01-07T09:51:09.937Z,100544.56
2023-01-07T09:53:41.122Z,100536.69
2023-01-07T09:56:27.685Z,100534.06
2023-01-07T09:58:56.044Z,100529.72
2023-01-07T10:01:31.538Z,100529.75
2023-01-07T10:03:58.221Z,100529.78
2023-01-07T10:06:43.576Z,100529.81
2023-01-07T10:09:35.966Z,100530.69
2023-01-07T10:12:11.795Z,100529.84
2023-01-07T10:14:56.547Z,100527.19
2023-01-07T10:17:35.383Z,100515.75
2023-01-07T10:20:07.997Z,100514.84
2023-01-07T10:22:39.783Z,100512.22
2023-01-07T10:25:27.585Z,100504.25
2023-01-07T10:27:58.634Z,100500.75
2023-01-07T10:30:31.069Z,100504.28
2023-01-07T10:33:25.707Z,100499.00
2023-01-07T10:36:14.639Z,100503.44
2023-01-07T10:38:47.372Z,100494.59
2023-01-07T10:41:23.221Z,100494.59
2023-01-07T10:44:33.382Z,100486.63
2023-01-07T10:47:17.487Z,100480.44
2023-01-07T10:50:03.356Z,100470.69
2023-01-07T10:52:52.431Z,100468.03
2023-01-07T10:55:45.144Z,100467.13
2023-01-07T10:58:12.502Z,100466.22
2023-01-07T11:00:40.558Z,100463.59
2023-01-07T11:03:18.129Z,100460.97
2023-01-07T11:05:45.451Z,100450.38
2023-01-07T11:11:15.716Z,100439.78
2023-01-07T11:13:44.318Z,100445.13
2023-01-07T11:16:17.717Z,100436.31
2023-01-07T11:19:11.069Z,100434.50
2023-01-07T11:21:44.755Z,100435.41
2023-01-07T11:24:34.658Z,100425.69
2023-01-07T11:27:15.187Z,100425.69
2023-01-07T11:30:04.467Z,100424.81
2023-01-07T11:32:40.477Z,100408.84
2023-01-07T11:35:22.473Z,100405.31
2023-01-07T11:37:49.837Z,100410.59
2023-01-07T11:40:29.880Z,100408.84
2023-01-07T11:43:16.120Z,100400.91
2023-01-07T11:46:20.848Z,100400.00
2023-01-07T11:49:02.839Z,100399.16
2023-01-07T11:51:40.210Z,100392.94
2023-01-07T11:54:20.012Z,100384.09
2023-01-07T11:56:46.924Z,100388.53
2023-01-07T11:59:15.342Z,100384.13
2023-01-07T12:01:46.111Z,100377.94
2023-01-07T12:04:20.979Z,100380.59
2023-01-07T12:06:51.298Z,100379.69
2023-01-07T12:09:22.415Z,100371.75
2023-01-07T12:11:50.381Z,100366.44
2023-01-07T12:14:16.871Z,100369.94
2023-01-07T12:16:47.641Z,100358.44
2023-01-07T12:19:48.014Z,100364.59
2023-01-07T12:22:32.948Z,100345.19
2023-01-07T12:25:21.065Z,100344.34
2023-01-07T12:28:04.375Z,100347.03
2023-01-07T12:31:02.193Z,100344.41
2023-01-07T12:34:07.772Z,100341.75
2023-01-07T12:36:54.508Z,100336.47
2023-01-07T12:39:30.266Z,100338.28
2023-01-07T12:42:07.950Z,100332.06
2023-01-07T12:44:40.452Z,100313.47
2023-01-07T12:47:30.662Z,100310.84
2023-01-07T12:50:16.062Z,100306.41
2023-01-07T12:52:52.255Z,100307.31
2023-01-07T12:55:26.309Z,100301.13
2023-01-07T12:58:28.179Z,100303.75
2023-01-07T13:01:29.782Z,100299.34
2023-01-07T13:04:18.219Z,100294.91
2023-01-07T13:06:51.476Z,100296.69
2023-01-07T13:09:36.624Z,100288.75
2023-01-07T13:12:46.254Z,100288.72
2023-01-07T13:15:29.730Z,100290.50
2023-01-07T13:17:59.273Z,100294.03
2023-01-07T13:20:36.408Z,100288.69
2023-01-07T13:23:04.462Z,100289.59
2023-01-07T13:25:51.321Z,100283.41
2023-01-07T13:28:55.658Z,100281.63
2023-01-07T13:31:31.672Z,100275.44
2023-01-07T13:34:32.231Z,100268.38
2023-01-07T13:37:33.424Z,100270.13
2023-01-07T13:40:15.350Z,100270.09
2023-01-07T13:43:00.683Z,100270.09
2023-01-07T13:45:33.987Z,100273.63
2023-01-07T13:48:03.326Z,100272.72
2023-01-07T13:50:35.576Z,100268.28
2023-01-07T13:53:26.580Z,100256.81
2023-01-07T13:56:14.197Z,100250.63
2023-01-07T13:58:46.684Z,100253.25
2023-01-07T14:01:21.837Z,100249.72
2023-01-07T14:03:53.648Z,100255.03
2023-01-07T14:06:23.840Z,100243.53
2023-01-07T14:08:56.712Z,100238.22
2023-01-07T14:11:29.492Z,100237.38
2023-01-07T14:14:03.681Z,100236.47
2023-01-07T14:16:40.247Z,100239.13
2023-01-07T14:19:30.330Z,100247.94
2023-01-07T14:22:30.880Z,100247.06
2023-01-07T14:25:11.839Z,100246.19
2023-01-07T14:28:13.057Z,100227.63
2023-01-07T14:30:44.841Z,100229.41
2023-01-07T14:33:17.997Z,100225.00
2023-01-07T14:36:03.365Z,100220.56
2023-01-07T14:38:30.060Z,100217.00
2023-01-07T14:41:02.855Z,100223.22
2023-01-07T14:43:47.857Z,100212.56
2023-01-07T14:46:23.669Z,100215.22
2023-01-07T14:49:02.176Z,100205.47
2023-01-07T14:51:59.094Z,100217.84
2023-01-07T14:54:59.900Z,100202.81
2023-01-07T14:57:41.537Z,100208.13
2023-01-07T15:00:31.716Z,100202.81
2023-01-07T15:03:23.274Z,100203.69
2023-01-07T15:06:05.240Z,100199.28
2023-01-07T15:09:04.878Z,100185.13
2023-01-07T15:11:51.529Z,100191.34
2023-01-07T15:15:17.611Z,100179.84
2023-01-07T15:17:44.563Z,100172.75
2023-01-07T15:20:12.412Z,100171.00
2023-01-07T15:23:03.608Z,100170.97
2023-01-07T15:25:56.652Z,100174.53
2023-01-07T15:28:32.037Z,100165.69
2023-01-07T15:31:13.795Z,100163.03
2023-01-07T15:33:47.948Z,100170.09
2023-01-07T15:36:16.102Z,100162.13
2023-01-07T15:38:52.810Z,100156.84
2023-01-07T15:41:35.459Z,100159.50
2023-01-07T15:44:05.656Z,100150.66
2023-01-07T15:46:33.545Z,100144.47
2023-01-07T15:49:25.009Z,100148.91
2023-01-07T15:51:55.712Z,100148.00
2023-01-07T15:54:32.309Z,100148.00
2023-01-07T15:57:16.241Z,100132.13
2023-01-07T15:59:45.845Z,100120.63
2023-01-07T16:02:38.521Z,100122.41
2023-01-07T16:05:06.409Z,100119.75
2023-01-07T16:07:37.237Z,100119.75
2023-01-07T16:10:04.102Z,100118.00
2023-01-07T16:12:38.536Z,100109.16
2023-01-07T16:15:32.554Z,100095.91
2023-01-07T16:18:01.845Z,100098.53
2023-01-07T16:20:31.606Z,100102.94
2023-01-07T16:23:10.621Z,100099.41
2023-01-07T16:25:40.676Z,100091.47
2023-01-07T16:28:08.192Z,100084.38
2023-01-07T16:30:40.836Z,100092.34
2023-01-07T16:33:08.918Z,100088.81
2023-01-07T16:35:39.001Z,100087.03
2023-01-07T16:38:06.365Z,100091.44
2023-01-07T16:40:32.881Z,100082.63
2023-01-07T16:42:59.667Z,100078.22
2023-01-07T16:45:30.091Z,100064.09
2023-01-07T16:48:17.899Z,100058.78
2023-01-07T16:50:46.000Z,100065.84
2023-01-07T16:53:30.349Z,100063.19
2023-01-07T16:56:17.714Z,100061.44
2023-01-07T16:58:55.513Z,100058.75
2023-01-07T17:01:34.544Z,100059.63
2023-01-07T17:04:07.515Z,100049.91
2023-01-07T17:06:40.947Z,100038.44
2023-01-07T17:09:19.470Z,100032.22
2023-01-07T17:11:50.336Z,100033.06
2023-01-07T17:14:35.783Z,100042.78
2023-01-07T17:17:18.170Z,100039.25
2023-01-07T17:19:54.232Z,100038.41
2023-01-07T17:22:38.083Z,100033.97
2023-01-07T17:25:26.952Z,100033.97
2023-01-07T17:28:08.398Z,100024.28
2023-01-07T17:30:36.416Z,100014.59
2023-01-07T17:33:03.553Z,100005.75
2023-01-07T17:35:30.774Z,100004.88
2023-01-07T17:37:57.290Z,100007.50
2023-01-07T17:40:23.929Z,100003.13
2023-01-07T17:43:09.589Z,100009.31
2023-01-07T17:45:36.255Z,100009.31
2023-01-07T17:48:04.602Z,100003.13
2023-01-07T17:50:36.816Z,100004.00
2023-01-07T17:53:04.248Z,99996.97
2023-01-07T17:55:32.156Z,100001.38
2023-01-07T17:57:59.024Z,99994.28
2023-01-07T18:00:27.419Z,99994.28
2023-01-07T18:02:54.390Z,99996.94
2023-01-07T18:05:26.064Z,99993.44
2023-01-07T18:07:53.720Z,99995.19
2023-01-07T18:10:26.246Z,99990.78
2023-01-07T18:12:55.358Z,99990.78
2023-01-07T18:15:27.279Z,99987.25
2023-01-07T18:17:53.891Z,99989.03
2023-01-07T18:20:21.647Z,99986.34
2023-01-07T18:22:48.442Z,99981.06
2023-01-07T18:25:20.983Z,99969.63
2023-01-07T18:27:49.233Z,99962.56
2023-01-07T18:30:19.301Z,99960.81
2023-01-07T18:32:46.651Z,99953.72
2023-01-07T18:35:13.489Z,99964.31
2023-01-07T18:37:40.650Z,99965.22
2023-01-07T18:40:09.243Z,99962.56
2023-01-07T18:42:36.144Z,99952.84
2023-01-07T18:45:04.296Z,99951.94
2023-01-07T18:47:31.071Z,99957.25
2023-01-07T18:49:57.806Z,99951.06
2023-01-07T18:52:24.567Z,99942.25
2023-01-07T18:54:51.110Z,99943.13
2023-01-07T18:57:17.572Z,99945.78
2023-01-07T18:59:44.608Z,99946.63
2023-01-07T19:02:16.538Z,99945.78
2023-01-07T19:04:43.189Z,99940.50
2023-01-07T19:07:10.043Z,99936.06
2023-01-07T19:09:36.535Z,99949.28
2023-01-07T19:12:03.601Z,99948.41
2023-01-07T19:14:30.132Z,99938.69
2023-01-07T19:16:56.934Z,99932.53
2023-01-07T19:19:23.605Z,99930.75
2023-01-07T19:21:50.464Z,99928.09
2023-01-07T19:24:17.020Z,99920.16
2023-01-07T19:26:43.842Z,99910.47
2023-01-07T19:29:12.090Z,99907.81
2023-01-07T19:31:39.858Z,99899.84
2023-01-07T19:34:06.495Z,99900.72
2023-01-07T19:36:33.407Z,99893.59
2023-01-07T19:38:59.975Z,99898.84
2023-01-07T19:41:26.744Z,99904.97
2023-01-07T19:43:59.220Z,99902.31
2023-01-07T19:46:26.655Z,99879.38
2023-01-07T19:48:53.819Z,99896.06
2023-01-07T19:51:20.645Z,99897.75
2023-01-07T19:53:49.751Z,99893.31
2023-01-07T19:56:16.418Z,99888.88
2023-01-07T19:58:42.913Z,99887.09
2023-01-07T20:01:13.056Z,99882.66
2023-01-07T20:03:39.823Z,99877.34
2023-01-07T20:06:09.791Z,99880.84
2023-01-07T20:08:37.323Z,99882.56
2023-01-07T20:11:04.517Z,99875.50
2023-01-07T20:13:35.344Z,99868.44
2023-01-07T20:16:07.183Z,99861.41
2023-01-07T20:18:42.029Z,99855.22
2023-01-07T20:21:09.589Z,99856.06
2023-01-07T20:23:37.494Z,99856.06
2023-01-07T20:26:07.139Z,99838.47
2023-01-07T20:28:35.656Z,99834.97
2023-01-07T20:31:07.416Z,99830.53
2023-01-07T20:33:35.323Z,99831.41
2023-01-07T20:36:07.652Z,99820.88
2023-01-07T20:38:35.526Z,99823.50
2023-01-07T20:41:09.409Z,99819.13
2023-01-07T20:43:37.195Z,99806.84
2023-01-07T20:46:06.369Z,99800.69
2023-01-07T20:48:34.140Z,99791.91
2023-01-07T20:51:05.323Z,99784.88
2023-01-07T20:53:31.875Z,99784.91
2023-01-07T20:56:00.214Z,99785.78
2023-01-07T20:58:30.266Z,99790.19
2023-01-07T21:00:56.864Z,99778.78
2023-01-07T21:03:23.525Z,99769.97
2023-01-07T21:05:55.212Z,99771.75
2023-01-07T21:08:21.810Z,99774.41
2023-01-07T21:10:48.555Z,99771.75
2023-01-07T21:13:15.038Z,99776.19
2023-01-07T21:15:41.575Z,99768.28
2023-01-07T21:18:08.313Z,99764.75
2023-01-07T21:20:34.913Z,99764.78
2023-01-07T21:23:01.446Z,99753.34
2023-01-07T21:25:27.990Z,99755.13
2023-01-07T21:27:54.988Z,99756.00
2023-01-07T21:30:21.591Z,99755.13
2023-01-07T21:32:48.190Z,99757.81
2023-01-07T21:35:14.990Z,99750.78
2023-01-07T21:37:41.512Z,99766.63
2023-01-07T21:40:08.563Z,99769.22
2023-01-07T21:42:36.397Z,99776.28
2023-01-07T21:45:03.088Z,99780.63
2023-01-07T21:47:30.149Z,99770.94
2023-01-07T21:49:56.963Z,99771.81
2023-01-07T21:52:23.658Z,99776.19
2023-01-07T21:54:51.917Z,99776.19
2023-01-07T21:57:19.447Z,99778.78
2023-01-07T21:59:45.915Z,99778.78
2023-01-07T22:02:13.602Z,99776.09
2023-01-07T22:04:40.697Z,99784.00
2023-01-07T22:07:13.354Z,99776.03
2023-01-07T22:09:39.826Z,99770.72
2023-01-07T22:12:06.471Z,99764.53
2023-01-07T22:14:33.049Z,99760.09
2023-01-07T22:16:59.544Z,99748.66
2023-01-07T22:19:26.094Z,99746.00
2023-01-07T22:21:52.812Z,99753.03
2023-01-07T22:24:19.860Z,99751.28
2023-01-07T22:26:46.924Z,99741.63
2023-01-07T22:29:14.687Z,99731.06
2023-01-07T22:31:41.530Z,99734.56
2023-01-07T22:34:08.634Z,99730.19
2023-01-07T22:36:45.576Z,99729.28
2023-01-07T22:39:32.992Z,99732.88
2023-01-07T22:42:07.772Z,99717.06
2023-01-07T22:44:41.131Z,99720.59
2023-01-07T22:47:11.450Z,99725.91
2023-01-07T22:49:38.862Z,99725.97
2023-01-07T22:52:05.676Z,99722.47
2023-01-07T22:54:32.457Z,99718.09
2023-01-07T22:56:59.261Z,99711.06
2023-01-07T22:59:25.787Z,99705.84
2023-01-07T23:01:52.289Z,99712.91
2023-01-07T23:04:19.108Z,99710.25
2023-01-07T23:06:45.830Z,99715.56
2023-01-07T23:09:12.398Z,99703.22
2023-01-07T23:11:47.706Z,99701.47
2023-01-07T23:14:22.254Z,99705.00
2023-01-07T23:16:50.115Z,99703.28
2023-01-07T23:19:17.484Z,99707.72
2023-01-07T23:21:45.880Z,99698.03
2023-01-07T23:24:13.548Z,99700.69
2023-01-07T23:26:40.673Z,99696.28
2023-01-07T23:29:08.184Z,99691.03
2023-01-07T23:31:36.395Z,99690.16
2023-01-07T23:34:04.120Z,99693.69
2023-01-07T23:36:30.802Z,99686.63
2023-01-07T23:38:57.290Z,99695.44
2023-01-07T23:41:24.197Z,99686.63
2023-01-07T23:43:51.057Z,99680.47
2023-01-07T23:46:17.639Z,99668.16
2023-01-07T23:48:45.420Z,99655.81
2023-01-07T23:51:15.951Z,99646.13
2023-01-07T23:53:46.527Z,99639.09
2023-01-07T23:56:13.865Z,99634.69
2023-01-07T23:58:40.509Z,99641.72
